sensor_id;sensor_type;location;lat;lon;timestamp;P1;durP1;ratioP1;P2;durP2;ratioP2
41115;SDS011;26861;51.824;4.682;2023-02-28T00:00:23;1.50;;;0.80;;
41115;SDS011;26861;51.824;4.682;2023-02-28T00:02:49;1.92;;;1.15;;
41115;SDS011;26861;51.824;4.682;2023-02-28T00:05:18;1.48;;;0.80;;
41115;SDS011;26861;51.824;4.682;2023-02-28T00:07:46;2.15;;;1.00;;
41115;SDS011;26861;51.824;4.682;2023-02-28T00:10:13;2.70;;;0.77;;
41115;SDS011;26861;51.824;4.682;2023-02-28T00:12:45;1.10;;;0.80;;
41115;SDS011;26861;51.824;4.682;2023-02-28T00:15:12;1.63;;;0.95;;
41115;SDS011;26861;51.824;4.682;2023-02-28T00:17:37;1.48;;;0.80;;
41115;SDS011;26861;51.824;4.682;2023-02-28T00:20:04;0.70;;;0.68;;
41115;SDS011;26861;51.824;4.682;2023-02-28T00:22:35;2.60;;;1.00;;
41115;SDS011;26861;51.824;4.682;2023-02-28T00:25:01;1.40;;;0.70;;
41115;SDS011;26861;51.824;4.682;2023-02-28T00:27:26;1.67;;;0.80;;
41115;SDS011;26861;51.824;4.682;2023-02-28T00:29:52;1.92;;;0.80;;
41115;SDS011;26861;51.824;4.682;2023-02-28T00:32:19;0.70;;;0.55;;
41115;SDS011;26861;51.824;4.682;2023-02-28T00:34:44;1.60;;;0.70;;
41115;SDS011;26861;51.824;4.682;2023-02-28T00:37:10;0.73;;;0.60;;
41115;SDS011;26861;51.824;4.682;2023-02-28T00:39:39;1.08;;;0.77;;
41115;SDS011;26861;51.824;4.682;2023-02-28T00:42:06;0.63;;;0.60;;
41115;SDS011;26861;51.824;4.682;2023-02-28T00:44:32;0.70;;;0.60;;
41115;SDS011;26861;51.824;4.682;2023-02-28T00:46:58;1.30;;;1.00;;
41115;SDS011;26861;51.824;4.682;2023-02-28T00:49:25;1.45;;;0.80;;
41115;SDS011;26861;51.824;4.682;2023-02-28T00:51:51;0.88;;;0.65;;
41115;SDS011;26861;51.824;4.682;2023-02-28T00:54:17;0.93;;;0.70;;
41115;SDS011;26861;51.824;4.682;2023-02-28T00:56:43;1.23;;;0.80;;
41115;SDS011;26861;51.824;4.682;2023-02-28T00:59:10;0.68;;;0.50;;
41115;SDS011;26861;51.824;4.682;2023-02-28T01:01:37;1.95;;;0.77;;
41115;SDS011;26861;51.824;4.682;2023-02-28T01:04:02;1.30;;;0.80;;
41115;SDS011;26861;51.824;4.682;2023-02-28T01:06:28;0.85;;;0.60;;
41115;SDS011;26861;51.824;4.682;2023-02-28T01:08:54;0.88;;;0.60;;
41115;SDS011;26861;51.824;4.682;2023-02-28T01:11:19;0.82;;;0.57;;
41115;SDS011;26861;51.824;4.682;2023-02-28T01:13:45;1.75;;;0.85;;
41115;SDS011;26861;51.824;4.682;2023-02-28T01:16:11;1.00;;;0.68;;
41115;SDS011;26861;51.824;4.682;2023-02-28T01:18:38;1.85;;;0.80;;
41115;SDS011;26861;51.824;4.682;2023-02-28T01:21:05;1.85;;;0.68;;
41115;SDS011;26861;51.824;4.682;2023-02-28T01:23:32;0.80;;;0.57;;
41115;SDS011;26861;51.824;4.682;2023-02-28T01:26:04;1.15;;;0.70;;
41115;SDS011;26861;51.824;4.682;2023-02-28T01:28:30;2.00;;;0.70;;
41115;SDS011;26861;51.824;4.682;2023-02-28T01:30:56;1.50;;;0.77;;
41115;SDS011;26861;51.824;4.682;2023-02-28T01:33:22;0.43;;;0.43;;
41115;SDS011;26861;51.824;4.682;2023-02-28T01:35:47;0.95;;;0.82;;
41115;SDS011;26861;51.824;4.682;2023-02-28T01:38:13;1.13;;;0.70;;
41115;SDS011;26861;51.824;4.682;2023-02-28T01:40:39;1.02;;;0.77;;
41115;SDS011;26861;51.824;4.682;2023-02-28T01:43:09;1.23;;;0.55;;
41115;SDS011;26861;51.824;4.682;2023-02-28T01:45:50;1.55;;;0.75;;
41115;SDS011;26861;51.824;4.682;2023-02-28T01:48:16;1.17;;;0.68;;
41115;SDS011;26861;51.824;4.682;2023-02-28T01:50:43;1.17;;;0.60;;
41115;SDS011;26861;51.824;4.682;2023-02-28T01:53:13;1.00;;;0.80;;
41115;SDS011;26861;51.824;4.682;2023-02-28T01:55:42;0.65;;;0.43;;
41115;SDS011;26861;51.824;4.682;2023-02-28T01:58:13;1.35;;;0.93;;
41115;SDS011;26861;51.824;4.682;2023-02-28T02:00:39;0.70;;;0.60;;
41115;SDS011;26861;51.824;4.682;2023-02-28T02:03:12;1.15;;;0.77;;
41115;SDS011;26861;51.824;4.682;2023-02-28T02:05:43;0.85;;;0.55;;
41115;SDS011;26861;51.824;4.682;2023-02-28T02:08:13;1.30;;;0.63;;
41115;SDS011;26861;51.824;4.682;2023-02-28T02:10:46;1.75;;;0.55;;
41115;SDS011;26861;51.824;4.682;2023-02-28T02:16:00;1.13;;;0.70;;
41115;SDS011;26861;51.824;4.682;2023-02-28T02:21:38;1.85;;;0.82;;
41115;SDS011;26861;51.824;4.682;2023-02-28T02:24:25;1.95;;;0.80;;
41115;SDS011;26861;51.824;4.682;2023-02-28T02:27:26;3.20;;;0.80;;
41115;SDS011;26861;51.824;4.682;2023-02-28T02:43:36;1.52;;;0.70;;
41115;SDS011;26861;51.824;4.682;2023-02-28T02:46:10;0.55;;;0.50;;
41115;SDS011;26861;51.824;4.682;2023-02-28T02:48:54;1.90;;;0.70;;
41115;SDS011;26861;51.824;4.682;2023-02-28T02:51:21;1.60;;;0.80;;
41115;SDS011;26861;51.824;4.682;2023-02-28T02:53:57;1.77;;;0.52;;
41115;SDS011;26861;51.824;4.682;2023-02-28T02:56:31;1.08;;;0.63;;
41115;SDS011;26861;51.824;4.682;2023-02-28T02:59:01;1.15;;;0.50;;
41115;SDS011;26861;51.824;4.682;2023-02-28T03:01:29;1.80;;;0.82;;
41115;SDS011;26861;51.824;4.682;2023-02-28T03:03:58;1.75;;;0.90;;
41115;SDS011;26861;51.824;4.682;2023-02-28T03:06:35;1.40;;;0.77;;
41115;SDS011;26861;51.824;4.682;2023-02-28T03:09:01;0.95;;;0.70;;
41115;SDS011;26861;51.824;4.682;2023-02-28T03:11:27;1.55;;;0.63;;
41115;SDS011;26861;51.824;4.682;2023-02-28T03:32:16;1.10;;;0.70;;
41115;SDS011;26861;51.824;4.682;2023-02-28T03:37:40;1.13;;;0.57;;
41115;SDS011;26861;51.824;4.682;2023-02-28T03:40:10;0.68;;;0.50;;
41115;SDS011;26861;51.824;4.682;2023-02-28T03:42:39;0.98;;;0.50;;
41115;SDS011;26861;51.824;4.682;2023-02-28T03:45:22;1.38;;;0.55;;
41115;SDS011;26861;51.824;4.682;2023-02-28T03:47:54;1.33;;;0.98;;
41115;SDS011;26861;51.824;4.682;2023-02-28T03:50:40;0.90;;;0.60;;
41115;SDS011;26861;51.824;4.682;2023-02-28T03:53:15;0.88;;;0.60;;
41115;SDS011;26861;51.824;4.682;2023-02-28T03:56:08;1.17;;;0.60;;
41115;SDS011;26861;51.824;4.682;2023-02-28T03:58:58;1.05;;;0.55;;
41115;SDS011;26861;51.824;4.682;2023-02-28T04:01:32;2.40;;;0.60;;
41115;SDS011;26861;51.824;4.682;2023-02-28T04:04:03;1.35;;;0.50;;
41115;SDS011;26861;51.824;4.682;2023-02-28T04:06:30;0.80;;;0.50;;
41115;SDS011;26861;51.824;4.682;2023-02-28T04:08:57;1.67;;;0.60;;
41115;SDS011;26861;51.824;4.682;2023-02-28T04:11:23;0.80;;;0.68;;
41115;SDS011;26861;51.824;4.682;2023-02-28T04:14:11;1.00;;;0.40;;
41115;SDS011;26861;51.824;4.682;2023-02-28T04:16:37;0.85;;;0.60;;
41115;SDS011;26861;51.824;4.682;2023-02-28T04:19:05;1.17;;;0.63;;
41115;SDS011;26861;51.824;4.682;2023-02-28T04:21:32;0.85;;;0.60;;
41115;SDS011;26861;51.824;4.682;2023-02-28T04:24:01;1.10;;;0.60;;
41115;SDS011;26861;51.824;4.682;2023-02-28T04:26:30;1.38;;;0.70;;
41115;SDS011;26861;51.824;4.682;2023-02-28T04:29:00;0.73;;;0.40;;
41115;SDS011;26861;51.824;4.682;2023-02-28T04:31:28;0.80;;;0.70;;
41115;SDS011;26861;51.824;4.682;2023-02-28T04:33:53;1.75;;;0.70;;
41115;SDS011;26861;51.824;4.682;2023-02-28T04:36:19;1.65;;;0.60;;
41115;SDS011;26861;51.824;4.682;2023-02-28T04:38:45;1.05;;;0.60;;
41115;SDS011;26861;51.824;4.682;2023-02-28T04:41:12;1.10;;;0.60;;
41115;SDS011;26861;51.824;4.682;2023-02-28T04:43:38;0.85;;;0.47;;
41115;SDS011;26861;51.824;4.682;2023-02-28T04:46:04;0.40;;;0.40;;
41115;SDS011;26861;51.824;4.682;2023-02-28T04:48:31;0.88;;;0.60;;
41115;SDS011;26861;51.824;4.682;2023-02-28T04:51:02;0.93;;;0.47;;
41115;SDS011;26861;51.824;4.682;2023-02-28T04:53:29;0.93;;;0.50;;
41115;SDS011;26861;51.824;4.682;2023-02-28T04:55:58;1.05;;;0.70;;
41115;SDS011;26861;51.824;4.682;2023-02-28T04:58:24;1.08;;;0.65;;
41115;SDS011;26861;51.824;4.682;2023-02-28T05:00:50;0.52;;;0.52;;
41115;SDS011;26861;51.824;4.682;2023-02-28T05:03:17;1.55;;;0.50;;
41115;SDS011;26861;51.824;4.682;2023-02-28T05:05:42;0.88;;;0.45;;
41115;SDS011;26861;51.824;4.682;2023-02-28T05:08:08;0.60;;;0.50;;
41115;SDS011;26861;51.824;4.682;2023-02-28T05:10:34;0.88;;;0.55;;
41115;SDS011;26861;51.824;4.682;2023-02-28T05:13:00;1.00;;;0.55;;
41115;SDS011;26861;51.824;4.682;2023-02-28T05:15:26;1.02;;;0.70;;
41115;SDS011;26861;51.824;4.682;2023-02-28T05:17:53;1.05;;;0.50;;
41115;SDS011;26861;51.824;4.682;2023-02-28T05:20:18;1.23;;;0.55;;
41115;SDS011;26861;51.824;4.682;2023-02-28T05:22:45;0.98;;;0.50;;
41115;SDS011;26861;51.824;4.682;2023-02-28T05:25:12;0.85;;;0.38;;
41115;SDS011;26861;51.824;4.682;2023-02-28T05:27:42;1.92;;;0.60;;
41115;SDS011;26861;51.824;4.682;2023-02-28T05:30:09;0.65;;;0.50;;
41115;SDS011;26861;51.824;4.682;2023-02-28T05:32:36;1.02;;;0.40;;
41115;SDS011;26861;51.824;4.682;2023-02-28T05:35:08;0.60;;;0.57;;
41115;SDS011;26861;51.824;4.682;2023-02-28T05:37:36;1.10;;;0.40;;
41115;SDS011;26861;51.824;4.682;2023-02-28T05:40:03;0.47;;;0.45;;
41115;SDS011;26861;51.824;4.682;2023-02-28T05:42:35;0.55;;;0.40;;
41115;SDS011;26861;51.824;4.682;2023-02-28T05:45:01;1.00;;;0.57;;
41115;SDS011;26861;51.824;4.682;2023-02-28T05:47:27;0.95;;;0.50;;
41115;SDS011;26861;51.824;4.682;2023-02-28T05:49:52;1.73;;;0.70;;
41115;SDS011;26861;51.824;4.682;2023-02-28T05:52:18;0.57;;;0.40;;
41115;SDS011;26861;51.824;4.682;2023-02-28T05:54:43;1.45;;;0.70;;
41115;SDS011;26861;51.824;4.682;2023-02-28T05:57:10;0.57;;;0.47;;
41115;SDS011;26861;51.824;4.682;2023-02-28T05:59:36;0.70;;;0.40;;
41115;SDS011;26861;51.824;4.682;2023-02-28T06:02:05;0.65;;;0.55;;
41115;SDS011;26861;51.824;4.682;2023-02-28T06:04:36;0.75;;;0.50;;
41115;SDS011;26861;51.824;4.682;2023-02-28T06:07:02;0.75;;;0.73;;
41115;SDS011;26861;51.824;4.682;2023-02-28T06:09:29;1.00;;;0.50;;
41115;SDS011;26861;51.824;4.682;2023-02-28T06:11:57;0.77;;;0.60;;
41115;SDS011;26861;51.824;4.682;2023-02-28T06:14:31;0.60;;;0.50;;
41115;SDS011;26861;51.824;4.682;2023-02-28T06:16:59;0.93;;;0.43;;
41115;SDS011;26861;51.824;4.682;2023-02-28T06:19:26;2.00;;;0.90;;
41115;SDS011;26861;51.824;4.682;2023-02-28T06:21:52;0.95;;;0.95;;
41115;SDS011;26861;51.824;4.682;2023-02-28T06:24:19;2.25;;;1.15;;
41115;SDS011;26861;51.824;4.682;2023-02-28T06:26:45;1.25;;;1.15;;
41115;SDS011;26861;51.824;4.682;2023-02-28T06:29:11;1.65;;;1.52;;
41115;SDS011;26861;51.824;4.682;2023-02-28T06:31:37;1.90;;;1.80;;
41115;SDS011;26861;51.824;4.682;2023-02-28T06:34:03;2.90;;;2.70;;
41115;SDS011;26861;51.824;4.682;2023-02-28T06:36:30;3.40;;;3.20;;
41115;SDS011;26861;51.824;4.682;2023-02-28T06:38:56;3.88;;;3.58;;
41115;SDS011;26861;51.824;4.682;2023-02-28T06:41:22;4.95;;;4.53;;
41115;SDS011;26861;51.824;4.682;2023-02-28T06:43:51;5.47;;;5.18;;
41115;SDS011;26861;51.824;4.682;2023-02-28T06:46:18;5.50;;;5.20;;
41115;SDS011;26861;51.824;4.682;2023-02-28T06:48:44;6.43;;;6.03;;
41115;SDS011;26861;51.824;4.682;2023-02-28T06:51:14;7.85;;;7.35;;
41115;SDS011;26861;51.824;4.682;2023-02-28T06:53:42;7.82;;;7.32;;
41115;SDS011;26861;51.824;4.682;2023-02-28T06:56:09;7.88;;;7.38;;
41115;SDS011;26861;51.824;4.682;2023-02-28T06:58:37;8.40;;;7.90;;
41115;SDS011;26861;51.824;4.682;2023-02-28T07:01:04;9.02;;;8.32;;
41115;SDS011;26861;51.824;4.682;2023-02-28T07:03:30;8.95;;;8.25;;
41115;SDS011;26861;51.824;4.682;2023-02-28T07:05:56;8.93;;;8.40;;
41115;SDS011;26861;51.824;4.682;2023-02-28T07:08:22;8.40;;;7.90;;
41115;SDS011;26861;51.824;4.682;2023-02-28T07:10:55;9.00;;;8.40;;
41115;SDS011;26861;51.824;4.682;2023-02-28T07:13:21;8.25;;;7.75;;
41115;SDS011;26861;51.824;4.682;2023-02-28T07:18:20;8.13;;;7.63;;
41115;SDS011;26861;51.824;4.682;2023-02-28T07:20:45;7.88;;;7.28;;
41115;SDS011;26861;51.824;4.682;2023-02-28T07:23:11;6.57;;;6.18;;
41115;SDS011;26861;51.824;4.682;2023-02-28T07:25:36;7.10;;;6.60;;
41115;SDS011;26861;51.824;4.682;2023-02-28T07:28:02;7.18;;;6.60;;
41115;SDS011;26861;51.824;4.682;2023-02-28T07:30:28;7.00;;;6.50;;
41115;SDS011;26861;51.824;4.682;2023-02-28T07:32:53;6.00;;;5.63;;
41115;SDS011;26861;51.824;4.682;2023-02-28T07:35:21;5.97;;;5.68;;
41115;SDS011;26861;51.824;4.682;2023-02-28T07:37:47;5.65;;;5.15;;
41115;SDS011;26861;51.824;4.682;2023-02-28T07:40:13;5.47;;;5.03;;
41115;SDS011;26861;51.824;4.682;2023-02-28T07:42:42;5.20;;;4.82;;
41115;SDS011;26861;51.824;4.682;2023-02-28T07:45:08;4.70;;;4.40;;
41115;SDS011;26861;51.824;4.682;2023-02-28T07:47:36;4.40;;;4.10;;
41115;SDS011;26861;51.824;4.682;2023-02-28T07:50:02;6.82;;;4.32;;
41115;SDS011;26861;51.824;4.682;2023-02-28T07:52:28;3.95;;;3.65;;
41115;SDS011;26861;51.824;4.682;2023-02-28T07:54:54;11.23;;;3.53;;
41115;SDS011;26861;51.824;4.682;2023-02-28T07:57:19;4.97;;;3.33;;
41115;SDS011;26861;51.824;4.682;2023-02-28T07:59:45;3.10;;;2.80;;
41115;SDS011;26861;51.824;4.682;2023-02-28T08:02:14;3.17;;;2.97;;
41115;SDS011;26861;51.824;4.682;2023-02-28T08:04:41;3.83;;;2.90;;
41115;SDS011;26861;51.824;4.682;2023-02-28T08:07:07;4.47;;;2.50;;
41115;SDS011;26861;51.824;4.682;2023-02-28T08:09:33;4.30;;;2.10;;
41115;SDS011;26861;51.824;4.682;2023-02-28T08:11:59;6.93;;;2.30;;
41115;SDS011;26861;51.824;4.682;2023-02-28T08:14:25;2.03;;;1.80;;
41115;SDS011;26861;51.824;4.682;2023-02-28T08:16:50;3.90;;;2.00;;
41115;SDS011;26861;51.824;4.682;2023-02-28T08:19:16;2.95;;;1.70;;
41115;SDS011;26861;51.824;4.682;2023-02-28T08:21:41;4.80;;;2.00;;
41115;SDS011;26861;51.824;4.682;2023-02-28T08:24:07;2.22;;;1.75;;
41115;SDS011;26861;51.824;4.682;2023-02-28T08:26:33;2.83;;;1.58;;
41115;SDS011;26861;51.824;4.682;2023-02-28T08:28:58;2.85;;;1.50;;
41115;SDS011;26861;51.824;4.682;2023-02-28T08:31:24;5.68;;;1.45;;
41115;SDS011;26861;51.824;4.682;2023-02-28T08:33:49;7.78;;;2.35;;
41115;SDS011;26861;51.824;4.682;2023-02-28T08:36:16;3.22;;;1.02;;
41115;SDS011;26861;51.824;4.682;2023-02-28T08:38:42;4.95;;;1.30;;
41115;SDS011;26861;51.824;4.682;2023-02-28T08:41:09;2.00;;;1.10;;
41115;SDS011;26861;51.824;4.682;2023-02-28T08:43:37;4.05;;;1.48;;
41115;SDS011;26861;51.824;4.682;2023-02-28T08:46:04;2.45;;;1.00;;
41115;SDS011;26861;51.824;4.682;2023-02-28T08:48:31;10.00;;;1.33;;
41115;SDS011;26861;51.824;4.682;2023-02-28T08:50:59;4.60;;;1.20;;
41115;SDS011;26861;51.824;4.682;2023-02-28T08:53:26;7.97;;;1.33;;
41115;SDS011;26861;51.824;4.682;2023-02-28T08:55:59;5.93;;;1.02;;
41115;SDS011;26861;51.824;4.682;2023-02-28T08:58:26;4.47;;;1.35;;
41115;SDS011;26861;51.824;4.682;2023-02-28T09:00:52;5.63;;;1.00;;
41115;SDS011;26861;51.824;4.682;2023-02-28T09:03:19;4.32;;;1.00;;
41115;SDS011;26861;51.824;4.682;2023-02-28T09:05:58;5.57;;;1.30;;
41115;SDS011;26861;51.824;4.682;2023-02-28T09:08:26;4.00;;;1.30;;
41115;SDS011;26861;51.824;4.682;2023-02-28T09:10:53;0.90;;;0.60;;
41115;SDS011;26861;51.824;4.682;2023-02-28T09:13:19;2.55;;;0.95;;
41115;SDS011;26861;51.824;4.682;2023-02-28T09:15:45;8.35;;;1.63;;
41115;SDS011;26861;51.824;4.682;2023-02-28T09:18:11;3.97;;;0.90;;
41115;SDS011;26861;51.824;4.682;2023-02-28T09:20:38;2.92;;;0.70;;
41115;SDS011;26861;51.824;4.682;2023-02-28T09:23:05;2.20;;;0.73;;
41115;SDS011;26861;51.824;4.682;2023-02-28T09:25:31;3.17;;;0.73;;
41115;SDS011;26861;51.824;4.682;2023-02-28T09:27:57;9.43;;;1.10;;
41115;SDS011;26861;51.824;4.682;2023-02-28T09:30:22;3.88;;;0.80;;
41115;SDS011;26861;51.824;4.682;2023-02-28T09:32:48;2.47;;;0.77;;
41115;SDS011;26861;51.824;4.682;2023-02-28T09:35:18;0.82;;;0.57;;
41115;SDS011;26861;51.824;4.682;2023-02-28T09:37:44;3.85;;;0.70;;
41115;SDS011;26861;51.824;4.682;2023-02-28T09:40:10;2.05;;;0.70;;
41115;SDS011;26861;51.824;4.682;2023-02-28T09:42:37;0.68;;;0.45;;
41115;SDS011;26861;51.824;4.682;2023-02-28T09:45:13;0.80;;;0.50;;
41115;SDS011;26861;51.824;4.682;2023-02-28T09:48:03;1.83;;;0.80;;
41115;SDS011;26861;51.824;4.682;2023-02-28T09:50:38;1.60;;;0.73;;
41115;SDS011;26861;51.824;4.682;2023-02-28T09:55:51;1.40;;;0.75;;
41115;SDS011;26861;51.824;4.682;2023-02-28T10:01:21;1.13;;;0.70;;
41115;SDS011;26861;51.824;4.682;2023-02-28T10:04:22;0.68;;;0.57;;
41115;SDS011;26861;51.824;4.682;2023-02-28T10:07:01;1.33;;;0.70;;
41115;SDS011;26861;51.824;4.682;2023-02-28T10:09:31;2.67;;;0.70;;
41115;SDS011;26861;51.824;4.682;2023-02-28T10:12:04;1.52;;;0.70;;
41115;SDS011;26861;51.824;4.682;2023-02-28T10:14:34;1.90;;;0.68;;
41115;SDS011;26861;51.824;4.682;2023-02-28T10:22:13;1.20;;;0.70;;
41115;SDS011;26861;51.824;4.682;2023-02-28T10:24:47;1.38;;;0.63;;
41115;SDS011;26861;51.824;4.682;2023-02-28T10:27:17;1.30;;;0.65;;
41115;SDS011;26861;51.824;4.682;2023-02-28T10:29:52;0.50;;;0.40;;
41115;SDS011;26861;51.824;4.682;2023-02-28T10:32:20;1.55;;;0.90;;
41115;SDS011;26861;51.824;4.682;2023-02-28T10:34:59;1.45;;;0.63;;
41115;SDS011;26861;51.824;4.682;2023-02-28T10:37:28;0.70;;;0.50;;
41115;SDS011;26861;51.824;4.682;2023-02-28T10:39:53;1.15;;;0.80;;
41115;SDS011;26861;51.824;4.682;2023-02-28T10:42:20;1.02;;;0.50;;
41115;SDS011;26861;51.824;4.682;2023-02-28T10:45:13;1.58;;;0.90;;
41115;SDS011;26861;51.824;4.682;2023-02-28T10:47:56;1.23;;;0.80;;
41115;SDS011;26861;51.824;4.682;2023-02-28T10:50:51;1.70;;;1.00;;
41115;SDS011;26861;51.824;4.682;2023-02-28T10:58:24;1.15;;;0.70;;
41115;SDS011;26861;51.824;4.682;2023-02-28T11:00:52;0.70;;;0.70;;
41115;SDS011;26861;51.824;4.682;2023-02-28T11:03:28;1.75;;;0.77;;
41115;SDS011;26861;51.824;4.682;2023-02-28T11:05:56;1.52;;;0.80;;
41115;SDS011;26861;51.824;4.682;2023-02-28T11:08:22;1.25;;;0.95;;
41115;SDS011;26861;51.824;4.682;2023-02-28T11:10:59;1.33;;;0.75;;
41115;SDS011;26861;51.824;4.682;2023-02-28T11:13:31;0.90;;;0.63;;
41115;SDS011;26861;51.824;4.682;2023-02-28T11:16:00;0.80;;;0.68;;
41115;SDS011;26861;51.824;4.682;2023-02-28T11:21:05;2.03;;;0.90;;
41115;SDS011;26861;51.824;4.682;2023-02-28T11:23:33;0.90;;;0.60;;
41115;SDS011;26861;51.824;4.682;2023-02-28T11:26:02;1.53;;;0.87;;
41115;SDS011;26861;51.824;4.682;2023-02-28T11:28:41;1.27;;;0.82;;
41115;SDS011;26861;51.824;4.682;2023-02-28T11:33:43;0.80;;;0.60;;
41115;SDS011;26861;51.824;4.682;2023-02-28T11:36:18;0.80;;;0.80;;
41115;SDS011;26861;51.824;4.682;2023-02-28T11:38:56;1.00;;;0.60;;
41115;SDS011;26861;51.824;4.682;2023-02-28T11:46:49;0.93;;;0.70;;
41115;SDS011;26861;51.824;4.682;2023-02-28T11:55:01;0.65;;;0.60;;
41115;SDS011;26861;51.824;4.682;2023-02-28T12:28:49;1.02;;;0.80;;
41115;SDS011;26861;51.824;4.682;2023-02-28T12:31:23;1.02;;;0.60;;
41115;SDS011;26861;51.824;4.682;2023-02-28T12:33:53;0.50;;;0.50;;
41115;SDS011;26861;51.824;4.682;2023-02-28T12:36:34;0.57;;;0.50;;
41115;SDS011;26861;51.824;4.682;2023-02-28T12:41:34;0.40;;;0.40;;
41115;SDS011;26861;51.824;4.682;2023-02-28T12:47:01;1.45;;;0.60;;
41115;SDS011;26861;51.824;4.682;2023-02-28T12:49:36;0.52;;;0.47;;
41115;SDS011;26861;51.824;4.682;2023-02-28T12:52:18;0.30;;;0.30;;
41115;SDS011;26861;51.824;4.682;2023-02-28T12:54:53;0.85;;;0.40;;
41115;SDS011;26861;51.824;4.682;2023-02-28T12:57:36;0.70;;;0.53;;
41115;SDS011;26861;51.824;4.682;2023-02-28T13:00:14;0.57;;;0.30;;
41115;SDS011;26861;51.824;4.682;2023-02-28T13:08:59;0.95;;;0.73;;
41115;SDS011;26861;51.824;4.682;2023-02-28T13:11:33;0.68;;;0.50;;
41115;SDS011;26861;51.824;4.682;2023-02-28T13:14:05;0.40;;;0.40;;
41115;SDS011;26861;51.824;4.682;2023-02-28T13:17:03;1.15;;;0.45;;
41115;SDS011;26861;51.824;4.682;2023-02-28T13:22:20;0.55;;;0.40;;
41115;SDS011;26861;51.824;4.682;2023-02-28T13:27:46;0.40;;;0.40;;
41115;SDS011;26861;51.824;4.682;2023-02-28T13:46:31;0.40;;;0.40;;
41115;SDS011;26861;51.824;4.682;2023-02-28T13:51:55;0.40;;;0.38;;
41115;SDS011;26861;51.824;4.682;2023-02-28T13:54:51;0.88;;;0.32;;
41115;SDS011;26861;51.824;4.682;2023-02-28T14:00:22;0.70;;;0.55;;
41115;SDS011;26861;51.824;4.682;2023-02-28T14:05:42;0.30;;;0.30;;
41115;SDS011;26861;51.824;4.682;2023-02-28T14:10:43;0.80;;;0.50;;
41115;SDS011;26861;51.824;4.682;2023-02-28T14:16:02;1.95;;;0.40;;
41115;SDS011;26861;51.824;4.682;2023-02-28T14:18:31;1.30;;;0.40;;
41115;SDS011;26861;51.824;4.682;2023-02-28T14:21:43;0.77;;;0.50;;
41115;SDS011;26861;51.824;4.682;2023-02-28T14:37:52;1.45;;;0.55;;
41115;SDS011;26861;51.824;4.682;2023-02-28T14:40:32;0.55;;;0.40;;
41115;SDS011;26861;51.824;4.682;2023-02-28T14:43:04;0.70;;;0.50;;
41115;SDS011;26861;51.824;4.682;2023-02-28T14:45:43;1.05;;;0.50;;
41115;SDS011;26861;51.824;4.682;2023-02-28T14:48:15;0.30;;;0.30;;
41115;SDS011;26861;51.824;4.682;2023-02-28T14:50:42;1.58;;;0.60;;
41115;SDS011;26861;51.824;4.682;2023-02-28T14:53:18;1.40;;;0.60;;
41115;SDS011;26861;51.824;4.682;2023-02-28T14:55:46;0.85;;;0.60;;
41115;SDS011;26861;51.824;4.682;2023-02-28T15:00:57;0.30;;;0.30;;
41115;SDS011;26861;51.824;4.682;2023-02-28T15:03:33;0.60;;;0.40;;
41115;SDS011;26861;51.824;4.682;2023-02-28T15:06:04;0.50;;;0.30;;
41115;SDS011;26861;51.824;4.682;2023-02-28T15:08:42;0.60;;;0.40;;
41115;SDS011;26861;51.824;4.682;2023-02-28T15:11:09;0.50;;;0.47;;
41115;SDS011;26861;51.824;4.682;2023-02-28T15:13:42;2.80;;;0.52;;
41115;SDS011;26861;51.824;4.682;2023-02-28T15:16:19;1.30;;;0.30;;
41115;SDS011;26861;51.824;4.682;2023-02-28T15:21:21;1.30;;;0.43;;
41115;SDS011;26861;51.824;4.682;2023-02-28T15:23:54;0.52;;;0.30;;
41115;SDS011;26861;51.824;4.682;2023-02-28T15:26:31;0.45;;;0.40;;
41115;SDS011;26861;51.824;4.682;2023-02-28T15:29:11;0.85;;;0.40;;
41115;SDS011;26861;51.824;4.682;2023-02-28T15:31:41;2.05;;;0.30;;
41115;SDS011;26861;51.824;4.682;2023-02-28T15:34:18;0.88;;;0.40;;
41115;SDS011;26861;51.824;4.682;2023-02-28T15:36:46;0.90;;;0.50;;
41115;SDS011;26861;51.824;4.682;2023-02-28T15:39:19;0.85;;;0.40;;
41115;SDS011;26861;51.824;4.682;2023-02-28T15:41:47;0.77;;;0.40;;
41115;SDS011;26861;51.824;4.682;2023-02-28T15:44:33;1.20;;;0.50;;
41115;SDS011;26861;51.824;4.682;2023-02-28T15:47:06;0.80;;;0.40;;
41115;SDS011;26861;51.824;4.682;2023-02-28T15:49:47;2.42;;;0.50;;
41115;SDS011;26861;51.824;4.682;2023-02-28T15:52:16;0.70;;;0.45;;
41115;SDS011;26861;51.824;4.682;2023-02-28T15:57:43;1.10;;;0.70;;
41115;SDS011;26861;51.824;4.682;2023-02-28T16:00:11;1.27;;;0.63;;
41115;SDS011;26861;51.824;4.682;2023-02-28T16:02:39;0.30;;;0.30;;
41115;SDS011;26861;51.824;4.682;2023-02-28T16:07:32;0.60;;;0.60;;
41115;SDS011;26861;51.824;4.682;2023-02-28T16:09:58;1.20;;;0.32;;
41115;SDS011;26861;51.824;4.682;2023-02-28T16:12:25;0.75;;;0.52;;
41115;SDS011;26861;51.824;4.682;2023-02-28T16:14:57;0.88;;;0.30;;
41115;SDS011;26861;51.824;4.682;2023-02-28T16:17:28;0.43;;;0.40;;
41115;SDS011;26861;51.824;4.682;2023-02-28T16:19:56;0.73;;;0.30;;
41115;SDS011;26861;51.824;4.682;2023-02-28T16:22:21;0.40;;;0.40;;
41115;SDS011;26861;51.824;4.682;2023-02-28T16:24:47;0.55;;;0.40;;
41115;SDS011;26861;51.824;4.682;2023-02-28T16:27:31;1.42;;;0.35;;
41115;SDS011;26861;51.824;4.682;2023-02-28T16:30:01;0.85;;;0.60;;
41115;SDS011;26861;51.824;4.682;2023-02-28T16:32:27;0.40;;;0.32;;
41115;SDS011;26861;51.824;4.682;2023-02-28T16:35:00;0.50;;;0.40;;
41115;SDS011;26861;51.824;4.682;2023-02-28T16:37:26;0.40;;;0.32;;
41115;SDS011;26861;51.824;4.682;2023-02-28T16:39:52;1.27;;;0.50;;
41115;SDS011;26861;51.824;4.682;2023-02-28T16:42:20;1.40;;;0.40;;
41115;SDS011;26861;51.824;4.682;2023-02-28T16:44:50;1.00;;;0.60;;
41115;SDS011;26861;51.824;4.682;2023-02-28T16:47:16;0.30;;;0.30;;
41115;SDS011;26861;51.824;4.682;2023-02-28T16:49:43;0.73;;;0.60;;
41115;SDS011;26861;51.824;4.682;2023-02-28T16:52:09;1.65;;;0.88;;
41115;SDS011;26861;51.824;4.682;2023-02-28T16:54:36;1.42;;;0.95;;
41115;SDS011;26861;51.824;4.682;2023-02-28T16:57:03;0.65;;;0.40;;
41115;SDS011;26861;51.824;4.682;2023-02-28T16:59:29;0.60;;;0.50;;
41115;SDS011;26861;51.824;4.682;2023-02-28T17:01:56;0.40;;;0.40;;
41115;SDS011;26861;51.824;4.682;2023-02-28T17:04:23;1.35;;;0.80;;
41115;SDS011;26861;51.824;4.682;2023-02-28T17:06:50;1.27;;;0.57;;
41115;SDS011;26861;51.824;4.682;2023-02-28T17:09:17;0.50;;;0.47;;
41115;SDS011;26861;51.824;4.682;2023-02-28T17:11:44;0.57;;;0.50;;
41115;SDS011;26861;51.824;4.682;2023-02-28T17:14:10;1.25;;;0.50;;
41115;SDS011;26861;51.824;4.682;2023-02-28T17:16:36;0.57;;;0.40;;
41115;SDS011;26861;51.824;4.682;2023-02-28T17:21:36;0.40;;;0.40;;
41115;SDS011;26861;51.824;4.682;2023-02-28T17:24:01;0.95;;;0.52;;
41115;SDS011;26861;51.824;4.682;2023-02-28T17:26:28;0.77;;;0.63;;
41115;SDS011;26861;51.824;4.682;2023-02-28T17:28:55;0.70;;;0.60;;
41115;SDS011;26861;51.824;4.682;2023-02-28T17:31:23;0.70;;;0.57;;
41115;SDS011;26861;51.824;4.682;2023-02-28T17:33:50;1.30;;;0.50;;
41115;SDS011;26861;51.824;4.682;2023-02-28T17:36:21;0.85;;;0.50;;
41115;SDS011;26861;51.824;4.682;2023-02-28T17:38:51;0.50;;;0.50;;
41115;SDS011;26861;51.824;4.682;2023-02-28T17:41:18;0.30;;;0.30;;
41115;SDS011;26861;51.824;4.682;2023-02-28T17:43:43;1.05;;;0.55;;
41115;SDS011;26861;51.824;4.682;2023-02-28T17:46:16;0.50;;;0.50;;
41115;SDS011;26861;51.824;4.682;2023-02-28T17:48:47;0.50;;;0.40;;
41115;SDS011;26861;51.824;4.682;2023-02-28T17:51:14;0.30;;;0.30;;
41115;SDS011;26861;51.824;4.682;2023-02-28T17:53:40;0.60;;;0.50;;
41115;SDS011;26861;51.824;4.682;2023-02-28T17:56:27;1.02;;;0.40;;
41115;SDS011;26861;51.824;4.682;2023-02-28T17:58:53;0.73;;;0.73;;
41115;SDS011;26861;51.824;4.682;2023-02-28T18:01:21;0.70;;;0.57;;
41115;SDS011;26861;51.824;4.682;2023-02-28T18:03:50;0.60;;;0.50;;